createdAt,value
2023-12-26T00:00:23.925Z,-2.20
2023-12-26T00:02:52.519Z,-2.20
2023-12-26T00:05:22.719Z,-2.20
2023-12-26T00:07:51.222Z,-2.20
2023-12-26T00:10:19.541Z,-2.20
2023-12-26T00:12:47.798Z,-2.20
2023-12-26T00:15:16.316Z,-2.20
2023-12-26T00:17:44.630Z,-2.20
2023-12-26T00:20:13.052Z,-2.20
2023-12-26T00:22:44.705Z,-2.20
2023-12-26T00:25:13.176Z,-2.20
2023-12-26T00:27:41.535Z,-2.10
2023-12-26T00:30:10.381Z,-2.10
2023-12-26T00:32:39.254Z,-2.10
2023-12-26T00:35:07.848Z,-2.10
2023-12-26T00:37:36.178Z,-2.10
2023-12-26T00:40:06.613Z,-2.20
2023-12-26T00:42:34.989Z,-2.20
2023-12-26T00:45:05.239Z,-2.20
2023-12-26T00:47:34.268Z,-2.20
2023-12-26T00:50:02.659Z,-2.20
2023-12-26T00:52:33.523Z,-2.10
2023-12-26T00:55:01.967Z,-2.10
2023-12-26T00:57:34.328Z,-2.10
2023-12-26T01:00:02.965Z,-2.10
2023-12-26T01:02:34.309Z,-2.10
2023-12-26T01:05:02.737Z,-2.10
2023-12-26T01:07:31.047Z,-2.10
2023-12-26T01:10:06.411Z,-2.10
2023-12-26T01:12:36.658Z,-2.10
2023-12-26T01:15:05.453Z,-2.20
2023-12-26T01:17:33.754Z,-2.20
2023-12-26T01:20:02.248Z,-2.10
2023-12-26T01:22:30.580Z,-2.10
2023-12-26T01:24:59.626Z,-2.20
2023-12-26T01:27:28.012Z,-2.20
2023-12-26T01:29:57.999Z,-2.10
2023-12-26T01:32:26.278Z,-2.20
2023-12-26T01:34:55.758Z,-2.20
2023-12-26T01:37:24.163Z,-2.10
2023-12-26T01:39:52.426Z,-2.10
2023-12-26T01:42:20.772Z,-2.10
2023-12-26T01:44:49.360Z,-2.10
2023-12-26T01:47:19.434Z,-2.00
2023-12-26T01:49:47.988Z,-2.00
2023-12-26T01:52:17.147Z,-1.90
2023-12-26T01:54:45.571Z,-1.90
2023-12-26T01:57:15.029Z,-1.90
2023-12-26T01:59:47.118Z,-1.90
2023-12-26T02:02:16.533Z,-1.80
2023-12-26T02:04:48.770Z,-1.80
2023-12-26T02:07:17.007Z,-1.90
2023-12-26T02:09:45.494Z,-1.90
2023-12-26T02:12:14.189Z,-1.90
2023-12-26T02:14:43.080Z,-1.90
2023-12-26T02:17:13.112Z,-1.90
2023-12-26T02:19:45.804Z,-1.90
2023-12-26T02:22:14.276Z,-1.90
2023-12-26T02:24:46.297Z,-1.90
2023-12-26T02:27:17.812Z,-1.90
2023-12-26T02:29:48.952Z,-1.90
2023-12-26T02:32:19.383Z,-1.90
2023-12-26T02:34:49.010Z,-1.90
2023-12-26T02:37:20.496Z,-1.90
2023-12-26T02:39:51.810Z,-1.90
2023-12-26T02:42:20.061Z,-1.90
2023-12-26T02:44:48.341Z,-1.90
2023-12-26T02:47:17.002Z,-1.80
2023-12-26T02:49:45.427Z,-1.80
2023-12-26T02:52:14.044Z,-1.80
2023-12-26T02:54:45.097Z,-1.80
2023-12-26T02:57:16.303Z,-1.80
2023-12-26T02:59:44.738Z,-1.80
2023-12-26T03:02:12.992Z,-1.80
2023-12-26T03:04:41.402Z,-1.80
2023-12-26T03:07:09.612Z,-1.90
2023-12-26T03:09:37.967Z,-1.90
2023-12-26T03:12:06.567Z,-1.90
2023-12-26T03:14:37.639Z,-1.90
2023-12-26T03:17:06.321Z,-2.00
2023-12-26T03:19:34.662Z,-2.00
2023-12-26T03:22:03.075Z,-2.00
2023-12-26T03:24:31.533Z,-2.00
2023-12-26T03:27:02.202Z,-2.00
2023-12-26T03:29:30.569Z,-2.00
2023-12-26T03:32:00.381Z,-2.10
2023-12-26T03:34:28.591Z,-2.10
2023-12-26T03:36:56.901Z,-2.10
2023-12-26T03:39:25.341Z,-2.10
2023-12-26T03:41:53.581Z,-2.10
2023-12-26T03:44:21.948Z,-2.10
2023-12-26T03:46:50.280Z,-2.20
2023-12-26T03:49:20.130Z,-2.20
2023-12-26T03:51:49.330Z,-2.20
2023-12-26T03:54:19.255Z,-2.20
2023-12-26T03:56:47.514Z,-2.20
2023-12-26T03:59:15.827Z,-2.30
2023-12-26T04:01:44.240Z,-2.30
2023-12-26T04:04:12.594Z,-2.30
2023-12-26T04:06:42.888Z,-2.30
2023-12-26T04:09:11.309Z,-2.30
2023-12-26T04:11:39.667Z,-2.30
2023-12-26T04:14:08.062Z,-2.40
2023-12-26T04:16:36.304Z,-2.40
2023-12-26T04:19:04.891Z,-2.40
2023-12-26T04:21:33.358Z,-2.40
2023-12-26T04:24:03.222Z,-2.40
2023-12-26T04:26:31.543Z,-2.50
2023-12-26T04:28:59.955Z,-2.50
2023-12-26T04:31:28.481Z,-2.60
2023-12-26T04:33:56.822Z,-2.60
2023-12-26T04:36:25.168Z,-2.60
2023-12-26T04:38:53.731Z,-2.60
2023-12-26T04:41:23.598Z,-2.60
2023-12-26T04:43:52.000Z,-2.70
2023-12-26T04:46:21.085Z,-2.60
2023-12-26T04:48:49.838Z,-2.60
2023-12-26T04:51:18.533Z,-2.70
2023-12-26T04:53:46.346Z,-2.70
2023-12-26T04:56:17.650Z,-2.70
2023-12-26T04:58:48.163Z,-2.70
2023-12-26T05:01:16.590Z,-2.90
2023-12-26T05:03:45.371Z,-2.90
2023-12-26T05:06:14.096Z,-2.90
2023-12-26T05:08:42.946Z,-3.00
2023-12-26T05:11:11.377Z,-3.10
2023-12-26T05:13:39.647Z,-3.00
2023-12-26T05:16:10.013Z,-3.10
2023-12-26T05:18:39.310Z,-3.10
2023-12-26T05:21:07.821Z,-3.10
2023-12-26T05:23:36.230Z,-3.10
2023-12-26T05:26:11.293Z,-3.10
2023-12-26T05:28:41.897Z,-3.10
2023-12-26T05:31:11.742Z,-3.20
2023-12-26T05:33:40.310Z,-3.20
2023-12-26T05:36:08.904Z,-3.20
2023-12-26T05:38:39.297Z,-3.10
2023-12-26T05:41:07.676Z,-3.10
2023-12-26T05:43:36.092Z,-3.20
2023-12-26T05:46:04.359Z,-3.20
2023-12-26T05:48:36.574Z,-3.20
2023-12-26T05:51:05.133Z,-3.20
2023-12-26T05:53:33.488Z,-3.30
2023-12-26T05:56:01.969Z,-3.30
2023-12-26T05:58:30.231Z,-3.30
2023-12-26T06:00:58.606Z,-3.40
2023-12-26T06:03:27.031Z,-3.40
2023-12-26T06:05:56.888Z,-3.40
2023-12-26T06:08:25.997Z,-3.30
2023-12-26T06:10:54.238Z,-3.40
2023-12-26T06:13:22.565Z,-3.40
2023-12-26T06:15:50.969Z,-3.50
2023-12-26T06:18:20.678Z,-3.50
2023-12-26T06:20:49.082Z,-3.50
2023-12-26T06:23:21.622Z,-3.50
2023-12-26T06:25:49.819Z,-3.50
2023-12-26T06:28:18.249Z,-3.60
2023-12-26T06:30:46.676Z,-3.60
2023-12-26T06:33:15.174Z,-3.60
2023-12-26T06:35:43.576Z,-3.70
2023-12-26T06:38:14.550Z,-3.70
2023-12-26T06:40:44.486Z,-3.80
2023-12-26T06:43:12.760Z,-3.70
2023-12-26T06:45:41.057Z,-3.70
2023-12-26T06:48:09.877Z,-3.70
2023-12-26T06:50:38.416Z,-3.80
2023-12-26T06:53:06.777Z,-3.80
2023-12-26T06:55:35.051Z,-3.80
2023-12-26T06:58:05.704Z,-3.70
2023-12-26T07:00:34.024Z,-3.80
2023-12-26T07:03:02.816Z,-3.80
2023-12-26T07:05:31.433Z,-3.90
2023-12-26T07:07:59.976Z,-3.90
2023-12-26T07:10:28.244Z,-3.90
2023-12-26T07:12:56.729Z,-4.00
2023-12-26T07:15:27.114Z,-4.00
2023-12-26T07:17:58.806Z,-4.00
2023-12-26T07:20:28.365Z,-4.00
2023-12-26T07:22:56.891Z,-4.00
2023-12-26T07:25:25.292Z,-4.20
2023-12-26T07:27:54.822Z,-4.30
2023-12-26T07:30:23.658Z,-4.30
2023-12-26T07:32:53.710Z,-4.20
2023-12-26T07:35:22.166Z,-4.30
2023-12-26T07:37:50.637Z,-4.40
2023-12-26T07:40:18.865Z,-4.40
2023-12-26T07:42:47.192Z,-4.40
2023-12-26T07:45:14.550Z,-4.40
2023-12-26T07:47:42.982Z,-4.40
2023-12-26T07:50:12.979Z,-4.40
2023-12-26T07:52:41.374Z,-4.50
2023-12-26T07:55:10.145Z,-4.40
2023-12-26T07:57:40.357Z,-4.50
2023-12-26T08:00:11.209Z,-4.40
2023-12-26T08:02:39.470Z,-4.50
2023-12-26T08:05:07.817Z,-4.60
2023-12-26T08:07:37.588Z,-4.50
2023-12-26T08:10:06.241Z,-4.50
2023-12-26T08:12:34.992Z,-4.60
2023-12-26T08:15:03.408Z,-4.60
2023-12-26T08:17:31.842Z,-4.60
2023-12-26T08:20:00.413Z,-4.60
2023-12-26T08:22:28.876Z,-4.60
2023-12-26T08:25:00.342Z,-4.70
2023-12-26T08:27:28.730Z,-4.70
2023-12-26T08:29:56.946Z,-4.60
2023-12-26T08:32:25.395Z,-4.60
2023-12-26T08:34:53.822Z,-4.70
2023-12-26T08:37:24.571Z,-4.60
2023-12-26T08:39:52.942Z,-4.60
2023-12-26T08:42:22.780Z,-4.70
2023-12-26T08:44:51.158Z,-4.70
2023-12-26T08:47:21.664Z,-4.80
2023-12-26T08:49:49.940Z,-4.70
2023-12-26T08:52:18.203Z,-4.80
2023-12-26T08:54:49.432Z,-4.80
2023-12-26T08:57:17.968Z,-4.90
2023-12-26T08:59:47.920Z,-5.00
2023-12-26T09:02:16.394Z,-4.90
2023-12-26T09:04:44.748Z,-4.80
2023-12-26T09:07:13.083Z,-4.90
2023-12-26T09:09:41.384Z,-4.90
2023-12-26T09:12:09.737Z,-4.90
2023-12-26T09:14:38.384Z,-4.80
2023-12-26T09:17:08.535Z,-4.90
2023-12-26T09:19:37.068Z,-4.80
2023-12-26T09:22:05.704Z,-5.00
2023-12-26T09:24:37.124Z,-5.00
2023-12-26T09:27:07.216Z,-5.00
2023-12-26T09:29:36.624Z,-4.90
2023-12-26T09:32:06.743Z,-4.90
2023-12-26T09:34:36.807Z,-4.90
2023-12-26T09:37:05.511Z,-5.10
2023-12-26T09:39:36.386Z,-5.10
2023-12-26T09:42:07.938Z,-5.10
2023-12-26T09:44:36.799Z,-5.20
2023-12-26T09:47:08.981Z,-5.20
2023-12-26T09:49:39.093Z,-5.10
2023-12-26T09:52:10.071Z,-5.30
2023-12-26T09:54:41.244Z,-5.20
2023-12-26T09:57:11.804Z,-5.10
2023-12-26T09:59:41.374Z,-4.90
2023-12-26T10:02:12.670Z,-5.10
2023-12-26T10:04:42.822Z,-5.10
2023-12-26T10:07:11.479Z,-5.00
2023-12-26T10:09:40.232Z,-5.00
2023-12-26T10:12:09.831Z,-4.90
2023-12-26T10:14:38.441Z,-5.10
2023-12-26T10:17:07.482Z,-5.00
2023-12-26T10:19:36.073Z,-5.00
2023-12-26T10:22:06.313Z,-5.00
2023-12-26T10:24:34.902Z,-4.90
2023-12-26T10:27:03.272Z,-5.00
2023-12-26T10:29:31.596Z,-5.00
2023-12-26T10:32:08.929Z,-5.10
2023-12-26T10:34:37.412Z,-5.00
2023-12-26T10:37:07.344Z,-5.00
2023-12-26T10:39:36.785Z,-5.00
2023-12-26T10:42:05.254Z,-5.20
2023-12-26T10:44:54.819Z,-5.00
2023-12-26T10:47:23.869Z,-4.90
2023-12-26T10:49:57.130Z,-4.90
2023-12-26T10:52:29.025Z,-4.90
2023-12-26T10:54:57.964Z,-4.90
2023-12-26T10:57:26.847Z,-4.90
2023-12-26T11:00:30.999Z,-5.00
2023-12-26T11:03:35.197Z,-5.00
2023-12-26T11:06:40.508Z,-5.20
2023-12-26T11:09:45.256Z,-5.10
2023-12-26T11:12:49.453Z,-5.20
2023-12-26T11:15:54.061Z,-5.50
2023-12-26T11:18:58.249Z,-5.20
2023-12-26T11:22:02.746Z,-5.20
2023-12-26T11:25:07.056Z,-5.20
2023-12-26T11:28:11.531Z,-5.50
2023-12-26T11:31:15.766Z,-5.50
2023-12-26T11:34:19.890Z,-5.60
2023-12-26T11:37:24.189Z,-5.30
2023-12-26T11:40:28.324Z,-5.40
2023-12-26T11:43:33.022Z,-5.40
2023-12-26T11:46:37.282Z,-5.30
2023-12-26T11:49:41.341Z,-5.30
2023-12-26T11:52:45.459Z,-5.30
2023-12-26T11:55:49.739Z,-5.30
2023-12-26T11:58:53.902Z,-5.30
2023-12-26T12:01:58.021Z,-5.50
2023-12-26T12:05:02.644Z,-5.60
2023-12-26T12:08:06.805Z,-5.70
2023-12-26T12:11:11.251Z,-5.60
2023-12-26T12:14:15.552Z,-5.60
2023-12-26T12:17:19.637Z,-5.80
2023-12-26T12:20:24.083Z,-5.80
2023-12-26T12:23:38.312Z,-5.90
2023-12-26T12:26:52.988Z,-5.90
2023-12-26T12:30:07.225Z,-6.00
2023-12-26T12:33:14.668Z,-5.90
2023-12-26T12:36:18.946Z,-5.80
2023-12-26T12:39:23.162Z,-5.70
2023-12-26T12:42:27.473Z,-5.60
2023-12-26T12:45:31.938Z,-5.80
2023-12-26T12:48:36.086Z,-5.90
2023-12-26T12:51:40.232Z,-5.90
2023-12-26T12:54:44.637Z,-5.80
2023-12-26T12:57:48.956Z,-6.00
2023-12-26T13:00:53.334Z,-6.00
2023-12-26T13:03:57.503Z,-6.10
2023-12-26T13:07:01.502Z,-6.20
2023-12-26T13:10:05.647Z,-6.20
2023-12-26T13:13:10.175Z,-6.20
2023-12-26T13:16:14.441Z,-6.10
2023-12-26T13:19:19.024Z,-6.10
2023-12-26T13:22:23.464Z,-6.00
2023-12-26T13:25:27.771Z,-6.20
2023-12-26T13:28:32.041Z,-6.40
2023-12-26T13:31:36.203Z,-6.50
2023-12-26T13:34:40.778Z,-6.30
2023-12-26T13:37:44.785Z,-6.30
2023-12-26T13:40:49.266Z,-6.60
2023-12-26T13:43:53.562Z,-6.50
2023-12-26T13:46:57.786Z,-6.40
2023-12-26T13:50:02.190Z,-6.20
2023-12-26T13:52:48.814Z,-6.20
2023-12-26T13:55:34.856Z,-6.20
2023-12-26T13:58:21.789Z,-6.20
2023-12-26T14:01:07.546Z,-6.20
2023-12-26T14:03:54.756Z,-6.20
2023-12-26T14:06:41.369Z,-6.30
2023-12-26T14:09:28.485Z,-6.40
2023-12-26T14:12:15.519Z,-6.50
2023-12-26T14:15:02.374Z,-6.50
2023-12-26T14:17:49.209Z,-6.20
2023-12-26T14:20:36.050Z,-6.30
2023-12-26T14:23:22.819Z,-6.30
2023-12-26T14:26:09.765Z,-6.40
2023-12-26T14:28:58.141Z,-6.50
2023-12-26T14:31:46.081Z,-6.70
2023-12-26T14:34:32.788Z,-6.50
2023-12-26T14:37:19.746Z,-6.60
2023-12-26T14:40:06.520Z,-6.60
2023-12-26T14:42:53.560Z,-6.60
2023-12-26T14:45:40.500Z,-6.80
2023-12-26T14:48:27.357Z,-6.80
2023-12-26T14:51:14.366Z,-6.70
2023-12-26T14:54:01.196Z,-6.60
2023-12-26T14:56:48.100Z,-6.60
2023-12-26T14:59:34.982Z,-6.60
2023-12-26T15:02:05.187Z,-6.80
2023-12-26T15:04:34.364Z,-6.90
2023-12-26T15:07:04.825Z,-7.00
2023-12-26T15:09:33.063Z,-7.00
2023-12-26T15:12:01.465Z,-6.90
2023-12-26T15:14:41.830Z,-6.80
2023-12-26T15:17:13.475Z,-7.00
2023-12-26T15:19:41.997Z,-6.90
2023-12-26T15:22:10.826Z,-7.00
2023-12-26T15:24:39.037Z,-6.90
2023-12-26T15:27:07.651Z,-6.80
2023-12-26T15:29:36.834Z,-6.90
2023-12-26T15:32:05.568Z,-6.90
2023-12-26T15:34:35.506Z,-6.90
2023-12-26T15:37:03.853Z,-7.00
2023-12-26T15:39:32.328Z,-7.10
2023-12-26T15:42:02.221Z,-7.10
2023-12-26T15:44:30.528Z,-7.10
2023-12-26T15:46:58.844Z,-7.10
2023-12-26T15:49:27.339Z,-7.10
2023-12-26T15:51:57.335Z,-6.90
2023-12-26T15:54:25.657Z,-7.10
2023-12-26T15:56:54.020Z,-7.00
2023-12-26T15:59:22.440Z,-7.00
2023-12-26T16:01:50.718Z,-7.10
2023-12-26T16:04:19.079Z,-7.00
2023-12-26T16:06:47.690Z,-7.10
2023-12-26T16:09:18.677Z,-7.10
2023-12-26T16:11:47.017Z,-7.20
2023-12-26T16:14:15.412Z,-7.20
2023-12-26T16:16:45.474Z,-7.20
2023-12-26T16:19:13.980Z,-7.20
2023-12-26T16:21:43.987Z,-7.10
2023-12-26T16:24:13.585Z,-7.20
2023-12-26T16:26:45.247Z,-7.20
2023-12-26T16:29:13.488Z,-7.30
2023-12-26T16:31:41.811Z,-7.50
2023-12-26T16:34:10.450Z,-7.50
2023-12-26T16:36:38.940Z,-7.50
2023-12-26T16:39:07.327Z,-7.50
2023-12-26T16:41:35.626Z,-7.40
2023-12-26T16:44:10.980Z,-7.50
2023-12-26T16:46:45.161Z,-7.50
2023-12-26T16:49:17.761Z,-7.40
2023-12-26T16:51:46.268Z,-7.50
2023-12-26T16:54:13.576Z,-7.60
2023-12-26T16:56:41.885Z,-7.50
2023-12-26T16:59:11.542Z,-7.60
2023-12-26T17:01:43.276Z,-7.50
2023-12-26T17:04:12.439Z,-7.40
2023-12-26T17:06:41.642Z,-7.70
2023-12-26T17:09:10.123Z,-7.70
2023-12-26T17:11:38.407Z,-7.90
2023-12-26T17:14:06.687Z,-7.80
2023-12-26T17:16:36.453Z,-7.80
2023-12-26T17:19:04.830Z,-7.80
2023-12-26T17:21:33.353Z,-7.80
2023-12-26T17:24:01.721Z,-7.70
2023-12-26T17:26:30.116Z,-7.60
2023-12-26T17:28:58.467Z,-7.60
2023-12-26T17:31:26.928Z,-7.60
2023-12-26T17:33:56.826Z,-7.70
2023-12-26T17:36:26.411Z,-7.60
2023-12-26T17:38:54.707Z,-7.70
2023-12-26T17:41:23.095Z,-7.80
2023-12-26T17:43:51.631Z,-7.80
2023-12-26T17:46:22.669Z,-7.80
2023-12-26T17:48:50.975Z,-7.70
2023-12-26T17:51:20.861Z,-7.70
2023-12-26T17:53:49.348Z,-7.70
2023-12-26T17:56:18.150Z,-7.60
2023-12-26T17:58:46.534Z,-7.70
2023-12-26T18:01:14.789Z,-7.60
2023-12-26T18:03:45.427Z,-7.70
2023-12-26T18:06:14.510Z,-7.80
2023-12-26T18:08:44.314Z,-7.80
2023-12-26T18:11:15.278Z,-7.70
2023-12-26T18:13:43.577Z,-7.80
2023-12-26T18:16:12.399Z,-7.70
2023-12-26T18:18:40.853Z,-7.80
2023-12-26T18:21:09.218Z,-7.60
2023-12-26T18:23:37.507Z,-7.60
2023-12-26T18:26:07.404Z,-7.70
2023-12-26T18:28:35.780Z,-7.80
2023-12-26T18:31:04.165Z,-7.70
2023-12-26T18:33:32.607Z,-7.80
2023-12-26T18:36:01.058Z,-7.70
2023-12-26T18:38:31.632Z,-7.70
2023-12-26T18:41:00.042Z,-7.70
2023-12-26T18:43:29.784Z,-7.60
2023-12-26T18:45:58.178Z,-7.50
2023-12-26T18:48:28.603Z,-7.40
2023-12-26T18:50:57.586Z,-7.40
2023-12-26T18:53:26.048Z,-7.30
2023-12-26T18:55:54.276Z,-7.40
2023-12-26T18:58:22.609Z,-7.50
2023-12-26T19:00:52.503Z,-7.60
2023-12-26T19:03:20.918Z,-7.50
2023-12-26T19:05:49.209Z,-7.50
2023-12-26T19:08:18.399Z,-7.50
2023-12-26T19:10:47.937Z,-7.50
2023-12-26T19:13:19.459Z,-7.50
2023-12-26T19:15:50.422Z,-7.50
2023-12-26T19:18:20.318Z,-7.60
2023-12-26T19:20:49.896Z,-7.50
2023-12-26T19:23:18.403Z,-7.60
2023-12-26T19:25:46.704Z,-7.60
2023-12-26T19:28:15.363Z,-7.60
2023-12-26T19:30:43.611Z,-7.70
2023-12-26T19:33:12.022Z,-7.70
2023-12-26T19:35:41.839Z,-7.70
2023-12-26T19:38:10.608Z,-7.70
2023-12-26T19:40:38.814Z,-7.80
2023-12-26T19:43:07.121Z,-7.70
2023-12-26T19:45:35.654Z,-7.70
2023-12-26T19:48:04.698Z,-7.70
2023-12-26T19:50:33.465Z,-7.80
2023-12-26T19:53:03.149Z,-7.70
2023-12-26T19:55:31.486Z,-7.70
2023-12-26T19:58:00.265Z,-7.70
2023-12-26T20:00:29.023Z,-7.60
2023-12-26T20:03:00.798Z,-7.60
2023-12-26T20:05:33.771Z,-7.50
2023-12-26T20:08:03.569Z,-7.40
2023-12-26T20:10:32.033Z,-7.40
2023-12-26T20:13:00.771Z,-7.40
2023-12-26T20:15:29.674Z,-7.40
2023-12-26T20:17:58.368Z,-7.30
2023-12-26T20:20:26.776Z,-7.30
2023-12-26T20:22:55.209Z,-7.20
2023-12-26T20:25:24.832Z,-7.20
2023-12-26T20:27:54.580Z,-7.10
2023-12-26T20:30:24.354Z,-7.10
2023-12-26T20:32:53.745Z,-7.10
2023-12-26T20:35:22.048Z,-7.10
2023-12-26T20:37:50.366Z,-7.10
2023-12-26T20:40:21.746Z,-7.00
2023-12-26T20:42:51.799Z,-7.00
2023-12-26T20:45:20.007Z,-7.00
2023-12-26T20:47:48.615Z,-7.00
2023-12-26T20:50:17.108Z,-6.90
2023-12-26T20:52:45.324Z,-6.90
2023-12-26T20:55:13.616Z,-7.00
2023-12-26T20:57:41.803Z,-7.00
2023-12-26T21:00:12.447Z,-7.10
2023-12-26T21:02:42.037Z,-7.00
2023-12-26T21:05:10.300Z,-7.00
2023-12-26T21:07:38.663Z,-7.10
2023-12-26T21:10:08.818Z,-7.10
2023-12-26T21:12:37.024Z,-7.10
2023-12-26T21:15:05.768Z,-7.10
2023-12-26T21:17:35.464Z,-7.10
2023-12-26T21:20:06.069Z,-7.10
2023-12-26T21:22:34.303Z,-7.00
2023-12-26T21:25:04.897Z,-7.00
2023-12-26T21:27:33.185Z,-6.90
2023-12-26T21:30:01.845Z,-7.00
2023-12-26T21:32:30.292Z,-6.90
2023-12-26T21:35:01.262Z,-6.90
2023-12-26T21:37:30.731Z,-6.90
2023-12-26T21:39:59.321Z,-7.10
2023-12-26T21:42:27.792Z,-7.00
2023-12-26T21:44:55.971Z,-7.10
2023-12-26T21:47:25.444Z,-7.10
2023-12-26T21:49:57.204Z,-7.20
2023-12-26T21:52:28.188Z,-7.10
2023-12-26T21:54:57.628Z,-7.20
2023-12-26T21:57:26.462Z,-7.20
2023-12-26T21:59:54.686Z,-7.30
2023-12-26T22:02:23.113Z,-7.30
2023-12-26T22:04:51.484Z,-7.30
2023-12-26T22:07:19.784Z,-7.30
2023-12-26T22:09:49.399Z,-7.30
2023-12-26T22:12:18.098Z,-7.30
2023-12-26T22:14:46.367Z,-7.30
2023-12-26T22:17:15.775Z,-7.30
2023-12-26T22:19:44.064Z,-7.30
2023-12-26T22:22:12.392Z,-7.20
2023-12-26T22:24:40.958Z,-7.20
2023-12-26T22:27:14.485Z,-7.30
2023-12-26T22:29:42.725Z,-7.30
2023-12-26T22:32:10.964Z,-7.30
2023-12-26T22:34:41.056Z,-7.40
2023-12-26T22:37:09.760Z,-7.40
2023-12-26T22:39:38.131Z,-7.40
2023-12-26T22:42:06.539Z,-7.40
2023-12-26T22:44:36.177Z,-7.30
2023-12-26T22:47:04.615Z,-7.40
2023-12-26T22:49:32.946Z,-7.30
2023-12-26T22:52:01.370Z,-7.30
2023-12-26T22:54:29.786Z,-7.30
2023-12-26T22:56:58.012Z,-7.30
2023-12-26T22:59:26.202Z,-7.20
2023-12-26T23:01:55.990Z,-7.30
2023-12-26T23:04:24.283Z,-7.20
2023-12-26T23:06:52.533Z,-7.20
2023-12-26T23:09:20.946Z,-7.20
2023-12-26T23:11:49.161Z,-7.20
2023-12-26T23:14:17.475Z,-7.10
2023-12-26T23:16:47.740Z,-7.10
2023-12-26T23:19:17.628Z,-7.10
2023-12-26T23:21:46.033Z,-7.10
2023-12-26T23:24:14.257Z,-7.10
2023-12-26T23:26:42.696Z,-7.10
2023-12-26T23:29:10.865Z,-7.10
2023-12-26T23:31:39.132Z,-7.10
2023-12-26T23:34:07.423Z,-7.00
2023-12-26T23:36:38.245Z,-7.00
2023-12-26T23:39:06.687Z,-7.00
2023-12-26T23:41:40.386Z,-6.90
2023-12-26T23:44:09.209Z,-6.90
2023-12-26T23:46:38.845Z,-6.90
2023-12-26T23:49:07.910Z,-6.90
2023-12-26T23:51:40.652Z,-6.90
2023-12-26T23:54:10.008Z,-6.90
2023-12-26T23:56:38.733Z,-6.80
2023-12-26T23:59:07.121Z,-6.80
